createdAt,value
2023-02-19T00:01:28.256Z,101953.36
2023-02-19T00:03:59.088Z,101954.35
2023-02-19T00:06:27.759Z,101954.67
2023-02-19T00:08:54.915Z,101950.55
2023-02-19T00:11:26.116Z,101950.59
2023-02-19T00:13:55.524Z,101948.30
2023-02-19T00:16:27.790Z,101950.81
2023-02-19T00:18:56.370Z,101945.62
2023-02-19T00:21:23.943Z,101946.45
2023-02-19T00:23:52.870Z,101943.64
2023-02-19T00:26:19.712Z,101946.91
2023-02-19T00:28:48.537Z,101943.50
2023-02-19T00:31:22.902Z,101937.15
2023-02-19T00:33:52.644Z,101931.13
2023-02-19T00:36:20.188Z,101935.05
2023-02-19T00:38:47.024Z,101937.34
2023-02-19T00:41:21.730Z,101941.41
2023-02-19T00:44:03.090Z,101937.38
2023-02-19T00:46:35.844Z,101935.53
2023-02-19T00:49:04.532Z,101931.88
2023-02-19T00:51:34.979Z,101931.98
2023-02-19T00:54:02.150Z,101932.94
2023-02-19T00:56:28.908Z,101931.06
2023-02-19T00:58:56.228Z,101934.23
2023-02-19T01:01:23.520Z,101926.80
2023-02-19T01:03:50.964Z,101925.76
2023-02-19T01:06:19.908Z,101924.83
2023-02-19T01:08:47.321Z,101921.35
2023-02-19T01:11:14.818Z,101925.89
2023-02-19T01:13:42.864Z,101926.09
2023-02-19T01:16:19.194Z,101921.79
2023-02-19T01:18:47.935Z,101919.17
2023-02-19T01:21:20.183Z,101909.76
2023-02-19T01:23:48.317Z,101914.34
2023-02-19T01:26:19.925Z,101908.80
2023-02-19T01:28:47.139Z,101908.39
2023-02-19T01:31:17.938Z,101902.91
2023-02-19T01:33:53.910Z,101900.98
2023-02-19T01:36:21.256Z,101901.27
2023-02-19T01:38:48.712Z,101901.09
2023-02-19T01:41:18.381Z,101901.71
2023-02-19T01:44:15.917Z,101899.17
2023-02-19T01:46:43.864Z,101900.79
2023-02-19T01:49:15.863Z,101897.06
2023-02-19T01:51:47.583Z,101895.25
2023-02-19T01:54:18.060Z,101894.10
2023-02-19T01:56:47.758Z,101891.95
2023-02-19T01:59:15.354Z,101888.56
2023-02-19T02:01:42.367Z,101881.52
2023-02-19T02:04:13.332Z,101870.22
2023-02-19T02:06:55.973Z,101872.52
2023-02-19T02:09:55.953Z,101865.01
2023-02-19T02:12:22.657Z,101861.60
2023-02-19T02:14:49.382Z,101860.65
2023-02-19T02:17:25.267Z,101852.85
2023-02-19T02:20:26.325Z,101847.83
2023-02-19T02:23:21.549Z,101840.17
2023-02-19T02:26:36.385Z,101844.67
2023-02-19T02:29:03.211Z,101849.00
2023-02-19T02:31:43.496Z,101845.01
2023-02-19T02:34:29.907Z,101842.10
2023-02-19T02:36:57.542Z,101847.08
2023-02-19T02:39:27.433Z,101838.58
2023-02-19T02:42:17.084Z,101840.70
2023-02-19T02:45:05.236Z,101841.95
2023-02-19T02:47:52.899Z,101833.09
2023-02-19T02:50:26.270Z,101829.10
2023-02-19T02:53:18.465Z,101826.98
2023-02-19T02:55:49.760Z,101833.90
2023-02-19T02:58:18.514Z,101827.52
2023-02-19T03:01:10.471Z,101823.13
2023-02-19T03:03:40.088Z,101816.81
2023-02-19T03:06:09.476Z,101819.93
2023-02-19T03:08:40.758Z,101825.00
2023-02-19T03:11:30.629Z,101827.48
2023-02-19T03:14:26.276Z,101830.50
2023-02-19T03:17:18.827Z,101832.84
2023-02-19T03:19:50.104Z,101829.52
2023-02-19T03:22:25.981Z,101827.06
2023-02-19T03:25:26.463Z,101828.63
2023-02-19T03:27:57.696Z,101823.91
2023-02-19T03:30:31.633Z,101817.44
2023-02-19T03:33:08.269Z,101821.61
2023-02-19T03:35:40.297Z,101827.15
2023-02-19T03:38:18.797Z,101827.79
2023-02-19T03:41:05.399Z,101827.38
2023-02-19T03:43:32.775Z,101824.39
2023-02-19T03:46:12.014Z,101828.13
2023-02-19T03:48:48.909Z,101829.71
2023-02-19T03:51:28.706Z,101830.99
2023-02-19T03:54:20.446Z,101834.45
2023-02-19T03:56:54.754Z,101834.67
2023-02-19T03:59:55.992Z,101834.73
2023-02-19T04:03:07.851Z,101836.73
2023-02-19T04:05:41.299Z,101826.75
2023-02-19T04:08:17.357Z,101825.66
2023-02-19T04:10:50.071Z,101825.71
2023-02-19T04:13:30.472Z,101824.32
2023-02-19T04:16:04.762Z,101828.39
2023-02-19T04:18:34.473Z,101829.20
2023-02-19T04:21:03.731Z,101832.53
2023-02-19T04:23:33.046Z,101831.63
2023-02-19T04:26:01.411Z,101834.83
2023-02-19T04:28:29.349Z,101833.81
2023-02-19T04:30:56.196Z,101835.13
2023-02-19T04:33:22.959Z,101835.42
2023-02-19T04:35:49.708Z,101831.63
2023-02-19T04:38:16.395Z,101840.70
2023-02-19T04:40:43.138Z,101841.46
2023-02-19T04:43:09.897Z,101829.30
2023-02-19T04:45:39.718Z,101828.83
2023-02-19T04:48:06.462Z,101837.93
2023-02-19T04:50:33.300Z,101824.45
2023-02-19T04:53:00.038Z,101820.81
2023-02-19T04:55:26.724Z,101825.83
2023-02-19T04:57:53.422Z,101814.33
2023-02-19T05:00:20.357Z,101811.14
2023-02-19T05:02:47.111Z,101809.83
2023-02-19T05:05:14.157Z,101810.52
2023-02-19T05:07:40.834Z,101803.06
2023-02-19T05:10:07.941Z,101803.46
2023-02-19T05:12:34.656Z,101806.21
2023-02-19T05:15:01.340Z,101801.71
2023-02-19T05:17:27.888Z,101797.21
2023-02-19T05:19:54.531Z,101790.06
2023-02-19T05:22:21.285Z,101787.94
2023-02-19T05:24:47.936Z,101790.95
2023-02-19T05:27:14.630Z,101789.74
2023-02-19T05:29:41.381Z,101783.96
2023-02-19T05:32:08.082Z,101785.12
2023-02-19T05:34:34.730Z,101790.70
2023-02-19T05:37:01.368Z,101790.27
2023-02-19T05:39:28.104Z,101795.41
2023-02-19T05:41:54.814Z,101787.46
2023-02-19T05:44:21.518Z,101781.15
2023-02-19T05:46:48.259Z,101782.20
2023-02-19T05:49:14.995Z,101780.92
2023-02-19T05:51:41.616Z,101778.33
2023-02-19T05:54:08.266Z,101782.18
2023-02-19T05:56:40.324Z,101778.78
2023-02-19T05:59:08.534Z,101775.63
2023-02-19T06:01:35.682Z,101765.43
2023-02-19T06:04:02.830Z,101757.81
2023-02-19T06:06:29.969Z,101763.67
2023-02-19T06:08:58.769Z,101770.22
2023-02-19T06:11:25.724Z,101771.76
2023-02-19T06:13:52.447Z,101771.90
2023-02-19T06:16:19.771Z,101771.38
2023-02-19T06:18:46.752Z,101776.82
2023-02-19T06:21:14.932Z,101782.34
2023-02-19T06:23:42.287Z,101775.60
2023-02-19T06:26:27.186Z,101765.70
2023-02-19T06:28:54.259Z,101766.41
2023-02-19T06:31:22.840Z,101769.80
2023-02-19T06:33:50.941Z,101772.66
2023-02-19T06:36:20.451Z,101770.57
2023-02-19T06:38:47.817Z,101760.14
2023-02-19T06:41:14.914Z,101769.86
2023-02-19T06:43:42.947Z,101766.56
2023-02-19T06:46:12.050Z,101766.21
2023-02-19T06:48:40.887Z,101771.39
2023-02-19T06:51:08.405Z,101774.73
2023-02-19T06:53:35.401Z,101779.61
2023-02-19T06:56:05.710Z,101778.41
2023-02-19T06:58:36.506Z,101780.92
2023-02-19T07:01:03.234Z,101785.89
2023-02-19T07:03:30.007Z,101780.48
2023-02-19T07:05:59.803Z,101791.05
2023-02-19T07:08:28.571Z,101785.81
2023-02-19T07:10:58.534Z,101787.89
2023-02-19T07:13:29.704Z,101789.56
2023-02-19T07:16:01.920Z,101786.78
2023-02-19T07:18:30.419Z,101781.61
2023-02-19T07:21:09.170Z,101778.14
2023-02-19T07:23:36.534Z,101770.96
2023-02-19T07:26:04.282Z,101769.20
2023-02-19T07:28:31.150Z,101766.38
2023-02-19T07:31:02.759Z,101769.33
2023-02-19T07:33:30.167Z,101766.32
2023-02-19T07:35:57.711Z,101761.21
2023-02-19T07:38:26.307Z,101765.41
2023-02-19T07:40:57.614Z,101765.02
2023-02-19T07:43:25.785Z,101769.88
2023-02-19T07:45:52.809Z,101767.79
2023-02-19T07:48:20.515Z,101768.77
2023-02-19T07:50:54.993Z,101763.07
2023-02-19T07:53:22.618Z,101760.92
2023-02-19T07:55:49.819Z,101759.86
2023-02-19T07:58:17.038Z,101753.16
2023-02-19T08:00:43.853Z,101748.78
2023-02-19T08:03:11.410Z,101750.23
2023-02-19T08:05:40.174Z,101746.69
2023-02-19T08:08:12.065Z,101743.65
2023-02-19T08:10:57.950Z,101753.00
2023-02-19T08:13:26.648Z,101761.67
2023-02-19T08:16:20.017Z,101762.95
2023-02-19T08:18:49.463Z,101759.48
2023-02-19T08:21:18.410Z,101761.29
2023-02-19T08:23:46.615Z,101757.36
2023-02-19T08:26:13.988Z,101760.55
2023-02-19T08:28:41.374Z,101754.02
2023-02-19T08:31:11.417Z,101757.48
2023-02-19T08:33:38.760Z,101758.29
2023-02-19T08:36:07.834Z,101763.89
2023-02-19T08:38:36.031Z,101769.30
2023-02-19T08:41:07.714Z,101768.10
2023-02-19T08:43:34.808Z,101775.84
2023-02-19T08:46:01.647Z,101780.48
2023-02-19T08:48:28.999Z,101779.89
2023-02-19T08:50:58.341Z,101772.86
2023-02-19T08:53:26.149Z,101764.29
2023-02-19T08:55:53.638Z,101773.61
2023-02-19T08:58:20.472Z,101773.81
2023-02-19T09:00:47.695Z,101764.05
2023-02-19T09:03:14.643Z,101764.87
2023-02-19T09:05:42.015Z,101757.98
2023-02-19T09:08:09.279Z,101757.27
2023-02-19T09:10:36.020Z,101750.88
2023-02-19T09:13:02.979Z,101752.77
2023-02-19T09:15:29.896Z,101753.30
2023-02-19T09:17:57.217Z,101750.17
2023-02-19T09:20:23.978Z,101751.56
2023-02-19T09:22:50.821Z,101747.46
2023-02-19T09:25:17.685Z,101744.83
2023-02-19T09:27:44.404Z,101737.40
2023-02-19T09:30:11.547Z,101746.14
2023-02-19T09:32:38.458Z,101753.06
2023-02-19T09:35:05.399Z,101751.77
2023-02-19T09:37:34.021Z,101753.20
2023-02-19T09:40:00.922Z,101760.73
2023-02-19T09:42:31.568Z,101757.41
2023-02-19T09:45:00.987Z,101756.73
2023-02-19T09:47:31.403Z,101757.10
2023-02-19T09:50:06.641Z,101755.39
2023-02-19T09:52:36.931Z,101750.48
2023-02-19T09:55:15.032Z,101743.23
2023-02-19T09:57:43.717Z,101744.54
2023-02-19T10:00:19.233Z,101752.30
2023-02-19T10:02:46.062Z,101754.16
2023-02-19T10:05:14.615Z,101749.25
2023-02-19T10:07:47.936Z,101750.95
2023-02-19T10:10:14.697Z,101748.59
2023-02-19T10:12:47.672Z,101752.24
2023-02-19T10:15:25.328Z,101753.95
2023-02-19T10:17:52.120Z,101757.92
2023-02-19T10:20:26.763Z,101759.55
2023-02-19T10:23:06.129Z,101760.11
2023-02-19T10:25:34.922Z,101756.97
2023-02-19T10:28:02.707Z,101751.50
2023-02-19T10:30:32.203Z,101748.86
2023-02-19T10:33:10.211Z,101743.27
2023-02-19T10:36:00.478Z,101743.98
2023-02-19T10:38:40.516Z,101741.73
2023-02-19T10:41:15.560Z,101741.42
2023-02-19T10:43:51.105Z,101739.30
2023-02-19T10:46:22.571Z,101738.08
2023-02-19T10:49:04.988Z,101739.25
2023-02-19T10:51:38.222Z,101737.81
2023-02-19T10:54:07.139Z,101741.36
2023-02-19T10:56:34.210Z,101741.95
2023-02-19T10:59:19.322Z,101738.05
2023-02-19T11:02:00.876Z,101732.92
2023-02-19T11:04:34.033Z,101731.94
2023-02-19T11:07:18.287Z,101732.83
2023-02-19T11:09:49.714Z,101728.01
2023-02-19T11:12:26.984Z,101719.62
2023-02-19T11:14:54.503Z,101719.88
2023-02-19T11:17:30.352Z,101715.98
2023-02-19T11:20:00.252Z,101709.90
2023-02-19T11:22:38.313Z,101707.70
2023-02-19T11:25:06.968Z,101704.02
2023-02-19T11:27:34.314Z,101697.77
2023-02-19T11:30:22.742Z,101691.52
2023-02-19T11:33:08.341Z,101689.90
2023-02-19T11:35:35.044Z,101685.51
2023-02-19T11:38:02.326Z,101670.75
2023-02-19T11:40:40.692Z,101663.97
2023-02-19T11:43:20.414Z,101658.63
2023-02-19T11:46:07.192Z,101661.39
2023-02-19T11:48:46.310Z,101655.58
2023-02-19T11:51:39.103Z,101658.67
2023-02-19T11:54:30.385Z,101668.20
2023-02-19T12:00:02.480Z,101661.83
2023-02-19T12:02:48.266Z,101663.93
2023-02-19T12:05:19.688Z,101658.13
2023-02-19T12:07:55.496Z,101655.08
2023-02-19T12:10:47.817Z,101653.80
2023-02-19T12:13:28.563Z,101647.95
2023-02-19T12:16:18.241Z,101638.01
2023-02-19T12:18:50.725Z,101629.13
2023-02-19T12:21:29.883Z,101623.93
2023-02-19T12:23:56.614Z,101620.16
2023-02-19T12:26:41.740Z,101621.30
2023-02-19T12:29:14.359Z,101620.50
2023-02-19T12:32:03.052Z,101619.22
2023-02-19T12:34:29.906Z,101613.05
2023-02-19T12:37:11.621Z,101613.67
2023-02-19T12:39:46.030Z,101613.23
2023-02-19T12:42:45.990Z,101608.44
2023-02-19T12:45:30.006Z,101596.19
2023-02-19T12:48:06.784Z,101594.72
2023-02-19T12:50:36.517Z,101590.19
2023-02-19T12:53:25.225Z,101577.52
2023-02-19T12:55:52.924Z,101577.45
2023-02-19T12:58:37.936Z,101575.75
2023-02-19T13:01:07.577Z,101564.92
2023-02-19T13:04:13.454Z,101564.76
2023-02-19T13:06:45.664Z,101561.53
2023-02-19T13:09:19.842Z,101559.68
2023-02-19T13:11:53.428Z,101561.69
2023-02-19T13:14:34.298Z,101561.66
2023-02-19T13:17:11.433Z,101558.50
2023-02-19T13:19:38.695Z,101556.47
2023-02-19T13:22:37.042Z,101552.90
2023-02-19T13:25:06.898Z,101548.20
2023-02-19T13:27:52.032Z,101540.14
2023-02-19T13:30:43.349Z,101545.28
2023-02-19T13:33:33.217Z,101545.35
2023-02-19T13:36:28.442Z,101539.90
2023-02-19T13:38:57.450Z,101536.60
2023-02-19T13:41:39.474Z,101541.98
2023-02-19T13:44:16.496Z,101539.94
2023-02-19T13:46:45.724Z,101540.89
2023-02-19T13:49:27.743Z,101544.75
2023-02-19T13:51:56.202Z,101541.27
2023-02-19T13:54:27.222Z,101536.74
2023-02-19T13:57:29.430Z,101529.84
2023-02-19T14:00:00.227Z,101538.23
2023-02-19T14:02:31.361Z,101537.07
2023-02-19T14:05:01.217Z,101534.80
2023-02-19T14:07:27.934Z,101537.89
2023-02-19T14:09:54.971Z,101549.03
2023-02-19T14:12:33.409Z,101542.70
2023-02-19T14:15:20.017Z,101543.55
2023-02-19T14:17:46.812Z,101535.06
2023-02-19T14:20:16.408Z,101538.30
2023-02-19T14:22:46.230Z,101539.02
2023-02-19T14:25:31.392Z,101536.94
2023-02-19T14:28:17.401Z,101536.42
2023-02-19T14:31:01.266Z,101540.87
2023-02-19T14:33:35.829Z,101538.19
2023-02-19T14:36:19.083Z,101536.30
2023-02-19T14:38:52.078Z,101537.82
2023-02-19T14:41:20.481Z,101537.83
2023-02-19T14:43:50.732Z,101535.31
2023-02-19T14:46:31.812Z,101534.87
2023-02-19T14:49:08.112Z,101529.13
2023-02-19T14:51:40.391Z,101530.87
2023-02-19T14:54:17.588Z,101530.16
2023-02-19T14:56:52.707Z,101536.48
2023-02-19T14:59:27.417Z,101537.14
2023-02-19T15:02:13.761Z,101535.45
2023-02-19T15:04:40.704Z,101536.62
2023-02-19T15:07:13.437Z,101532.21
2023-02-19T15:09:44.990Z,101537.36
2023-02-19T15:12:21.843Z,101535.48
2023-02-19T15:14:51.141Z,101540.39
2023-02-19T15:17:27.244Z,101549.62
2023-02-19T15:19:55.715Z,101545.48
2023-02-19T15:22:26.081Z,101553.14
2023-02-19T15:24:52.831Z,101559.34
2023-02-19T15:27:24.741Z,101556.98
2023-02-19T15:29:53.739Z,101555.55
2023-02-19T15:32:23.677Z,101546.32
2023-02-19T15:34:58.732Z,101545.98
2023-02-19T15:37:28.900Z,101547.41
2023-02-19T15:39:57.825Z,101551.34
2023-02-19T15:42:32.403Z,101557.41
2023-02-19T15:45:13.791Z,101554.45
2023-02-19T15:47:50.203Z,101554.05
2023-02-19T15:50:34.641Z,101555.83
2023-02-19T15:53:07.391Z,101546.99
2023-02-19T15:55:43.765Z,101553.05
2023-02-19T15:58:19.606Z,101555.94
2023-02-19T16:00:55.986Z,101561.55
2023-02-19T16:03:25.037Z,101563.65
2023-02-19T16:06:18.200Z,101568.30
2023-02-19T16:09:02.108Z,101563.48
2023-02-19T16:11:30.996Z,101560.64
2023-02-19T16:14:34.853Z,101564.33
2023-02-19T16:17:15.633Z,101565.79
2023-02-19T16:20:01.878Z,101566.48
2023-02-19T16:22:31.461Z,101562.38
2023-02-19T16:25:05.057Z,101568.00
2023-02-19T16:27:31.926Z,101579.33
2023-02-19T16:30:01.469Z,101574.08
2023-02-19T16:32:28.297Z,101577.13
2023-02-19T16:34:55.055Z,101577.64
2023-02-19T16:37:30.571Z,101578.70
2023-02-19T16:40:09.459Z,101582.69
2023-02-19T16:42:38.165Z,101585.90
2023-02-19T16:45:08.542Z,101578.81
2023-02-19T16:47:40.565Z,101590.18
2023-02-19T16:50:14.836Z,101595.15
2023-02-19T16:53:03.108Z,101597.18
2023-02-19T16:55:34.814Z,101602.83
2023-02-19T16:58:01.607Z,101610.00
2023-02-19T17:00:31.157Z,101615.02
2023-02-19T17:03:02.993Z,101604.98
2023-02-19T17:05:32.642Z,101620.31
2023-02-19T17:07:59.368Z,101626.81
2023-02-19T17:10:28.071Z,101625.54
2023-02-19T17:12:56.100Z,101625.71
2023-02-19T17:15:23.514Z,101638.75
2023-02-19T17:17:50.249Z,101643.73
2023-02-19T17:20:20.697Z,101647.86
2023-02-19T17:22:47.473Z,101651.23
2023-02-19T17:25:14.340Z,101656.03
2023-02-19T17:27:41.334Z,101660.34
2023-02-19T17:30:20.454Z,101656.89
2023-02-19T17:32:47.137Z,101656.21
2023-02-19T17:35:13.872Z,101665.31
2023-02-19T17:37:40.612Z,101676.95
2023-02-19T17:40:33.253Z,101678.13
2023-02-19T17:43:01.217Z,101673.10
2023-02-19T17:45:28.247Z,101668.30
2023-02-19T17:47:54.999Z,101672.90
2023-02-19T17:50:25.615Z,101675.28
2023-02-19T17:52:52.660Z,101677.08
2023-02-19T17:55:19.460Z,101677.36
2023-02-19T17:57:49.762Z,101674.65
2023-02-19T18:00:25.197Z,101686.14
2023-02-19T18:02:51.924Z,101685.53
2023-02-19T18:05:19.193Z,101685.96
2023-02-19T18:07:47.462Z,101692.16
2023-02-19T18:10:16.392Z,101693.69
2023-02-19T18:12:43.298Z,101700.08
2023-02-19T18:15:17.350Z,101697.68
2023-02-19T18:17:44.565Z,101688.89
2023-02-19T18:20:20.670Z,101685.59
2023-02-19T18:22:47.721Z,101691.02
2023-02-19T18:25:15.852Z,101700.20
2023-02-19T18:27:42.783Z,101712.86
2023-02-19T18:30:10.257Z,101727.77
2023-02-19T18:32:37.498Z,101725.73
2023-02-19T18:35:05.308Z,101723.35
2023-02-19T18:37:33.794Z,101728.11
2023-02-19T18:40:01.200Z,101729.67
2023-02-19T18:42:28.726Z,101736.86
2023-02-19T18:44:56.149Z,101740.60
2023-02-19T18:47:25.428Z,101746.52
2023-02-19T18:49:54.759Z,101751.57
2023-02-19T18:52:24.860Z,101760.68
2023-02-19T18:54:53.571Z,101764.76
2023-02-19T18:57:22.315Z,101766.70
2023-02-19T18:59:49.210Z,101770.27
2023-02-19T19:02:16.184Z,101780.09
2023-02-19T19:04:43.415Z,101780.14
2023-02-19T19:07:10.834Z,101779.05
2023-02-19T19:09:37.625Z,101776.19
2023-02-19T19:12:04.803Z,101776.67
2023-02-19T19:14:31.560Z,101771.54
2023-02-19T19:16:58.286Z,101773.29
2023-02-19T19:19:25.295Z,101782.45
2023-02-19T19:21:53.871Z,101786.42
2023-02-19T19:24:23.060Z,101783.23
2023-02-19T19:26:50.830Z,101794.48
2023-02-19T19:29:20.144Z,101800.47
2023-02-19T19:31:47.089Z,101805.27
2023-02-19T19:34:14.757Z,101810.81
2023-02-19T19:36:41.650Z,101815.20
2023-02-19T19:39:09.651Z,101823.51
2023-02-19T19:41:36.965Z,101831.67
2023-02-19T19:44:08.148Z,101838.94
2023-02-19T19:46:35.197Z,101839.85
2023-02-19T19:49:02.081Z,101831.05
2023-02-19T19:51:33.828Z,101834.58
2023-02-19T19:54:03.129Z,101834.70
2023-02-19T19:56:30.702Z,101843.45
2023-02-19T19:58:57.393Z,101842.38
2023-02-19T20:01:24.185Z,101845.17
2023-02-19T20:03:51.272Z,101844.90
2023-02-19T20:06:30.780Z,101840.30
2023-02-19T20:08:58.311Z,101840.55
2023-02-19T20:11:26.809Z,101842.66
2023-02-19T20:13:53.820Z,101845.02
2023-02-19T20:16:25.387Z,101848.06
2023-02-19T20:18:54.479Z,101849.15
2023-02-19T20:21:21.380Z,101851.58
2023-02-19T20:23:48.213Z,101853.28
2023-02-19T20:26:22.042Z,101850.02
2023-02-19T20:28:49.065Z,101851.73
2023-02-19T20:31:16.040Z,101842.48
2023-02-19T20:33:42.886Z,101839.52
2023-02-19T20:36:09.802Z,101839.17
2023-02-19T20:38:37.001Z,101842.29
2023-02-19T20:41:03.957Z,101845.34
2023-02-19T20:43:31.113Z,101843.61
2023-02-19T20:45:57.896Z,101842.44
2023-02-19T20:48:24.560Z,101848.93
2023-02-19T20:50:51.446Z,101854.44
2023-02-19T20:53:18.177Z,101850.58
2023-02-19T20:55:45.124Z,101851.67
2023-02-19T20:58:12.106Z,101853.10
2023-02-19T21:00:38.766Z,101857.82
2023-02-19T21:03:08.959Z,101855.70
2023-02-19T21:05:38.646Z,101859.63
2023-02-19T21:08:05.883Z,101860.15
2023-02-19T21:10:32.682Z,101873.80
2023-02-19T21:12:59.472Z,101878.73
2023-02-19T21:15:27.825Z,101882.02
2023-02-19T21:17:54.495Z,101885.91
2023-02-19T21:20:21.268Z,101889.43
2023-02-19T21:22:48.141Z,101885.15
2023-02-19T21:25:14.969Z,101888.67
2023-02-19T21:27:42.113Z,101890.20
2023-02-19T21:30:09.335Z,101882.23
2023-02-19T21:32:36.072Z,101874.46
2023-02-19T21:35:03.008Z,101879.80
2023-02-19T21:37:29.959Z,101882.11
2023-02-19T21:40:00.698Z,101880.44
2023-02-19T21:42:27.594Z,101880.81
2023-02-19T21:44:54.503Z,101877.58
2023-02-19T21:47:21.241Z,101882.84
2023-02-19T21:49:48.150Z,101886.38
2023-02-19T21:52:15.179Z,101890.35
2023-02-19T21:54:41.986Z,101892.27
2023-02-19T21:57:09.542Z,101891.02
2023-02-19T21:59:36.335Z,101894.64
2023-02-19T22:02:03.354Z,101899.66
2023-02-19T22:04:30.118Z,101906.27
2023-02-19T22:06:57.637Z,101911.95
2023-02-19T22:09:24.681Z,101914.55
2023-02-19T22:11:51.717Z,101919.58
2023-02-19T22:14:19.491Z,101926.41
2023-02-19T22:16:46.985Z,101925.14
2023-02-19T22:19:14.937Z,101919.60
2023-02-19T22:21:44.553Z,101920.35
2023-02-19T22:24:17.247Z,101918.30
2023-02-19T22:26:45.800Z,101919.89
2023-02-19T22:29:14.564Z,101920.60
2023-02-19T22:31:41.840Z,101922.39
2023-02-19T22:34:09.321Z,101923.95
2023-02-19T22:36:40.339Z,101921.66
2023-02-19T22:39:10.440Z,101922.27
2023-02-19T22:41:42.844Z,101920.13
2023-02-19T22:44:11.416Z,101926.52
2023-02-19T22:46:38.279Z,101929.38
2023-02-19T22:49:07.050Z,101931.69
2023-02-19T22:51:35.646Z,101925.44
2023-02-19T22:54:02.756Z,101929.99
2023-02-19T22:56:29.603Z,101929.50
2023-02-19T22:58:57.412Z,101931.51
2023-02-19T23:01:25.156Z,101934.30
2023-02-19T23:04:00.207Z,101930.61
2023-02-19T23:06:30.804Z,101933.00
2023-02-19T23:08:59.320Z,101933.95
2023-02-19T23:11:29.684Z,101933.94
2023-02-19T23:13:56.914Z,101937.35
2023-02-19T23:16:23.799Z,101937.55
2023-02-19T23:18:50.820Z,101936.17
2023-02-19T23:21:19.068Z,101939.89
2023-02-19T23:23:46.516Z,101941.69
2023-02-19T23:26:14.578Z,101941.05
2023-02-19T23:28:42.871Z,101940.57
2023-02-19T23:31:10.566Z,101939.20
2023-02-19T23:33:37.377Z,101935.84
2023-02-19T23:36:05.342Z,101938.70
2023-02-19T23:38:32.099Z,101946.27
2023-02-19T23:40:59.211Z,101950.66
2023-02-19T23:43:25.985Z,101950.73
2023-02-19T23:45:52.887Z,101943.38
2023-02-19T23:48:19.584Z,101944.52
2023-02-19T23:50:46.314Z,101946.59
2023-02-19T23:53:13.007Z,101943.98
2023-02-19T23:55:39.759Z,101944.70
2023-02-19T23:58:06.529Z,101945.07
